Time,TemperatureF,DewpointF,PressureIn,WindDirection,WindDirectionDegrees,WindSpeedMPH,WindSpeedGustMPH,Humidity,HourlyPrecipIn,Conditions,Clouds,dailyrainin,SoftwareType,DateUTC
2013-04-02 00:07:00,70.5,61.0,29.74,SE,135,10.9,-999.0,72,-99.99,,,0.00,Acu-Link.com,2013-04-02 05:07:00,
2013-04-02 00:22:00,70.5,61.4,29.73,SSE,157,10.4,-999.0,73,-99.99,,,0.00,Acu-Link.com,2013-04-02 05:22:00,
2013-04-02 00:37:00,70.5,61.4,29.73,SSE,157,9.4,-999.0,73,-99.99,,,0.00,Acu-Link.com,2013-04-02 05:37:00,
2013-04-02 00:52:00,70.5,61.8,29.74,SSE,157,5.8,-999.0,74,-99.99,,,0.00,Acu-Link.com,2013-04-02 05:52:00,
2013-04-02 01:08:00,70.3,62.0,29.76,East,90,13.0,-999.0,75,-99.99,,,0.00,Acu-Link.com,2013-04-02 06:08:00,
2013-04-02 01:23:00,70.0,62.1,29.77,East,90,5.8,-999.0,76,-99.99,,,0.00,Acu-Link.com,2013-04-02 06:23:00,
2013-04-02 01:38:00,70.0,62.4,29.78,ESE,112,3.7,-999.0,77,-99.99,,,0.00,Acu-Link.com,2013-04-02 06:38:00,
2013-04-02 01:53:00,69.8,62.6,29.80,East,90,4.7,-999.0,78,-99.99,,,0.00,Acu-Link.com,2013-04-02 06:53:00,
2013-04-02 02:09:00,69.8,63.0,29.80,East,90,3.2,-999.0,79,-99.99,,,0.00,Acu-Link.com,2013-04-02 07:09:00,
2013-04-02 02:24:00,66.4,57.9,29.81,NE,45,10.9,-999.0,74,-99.99,,,0.00,Acu-Link.com,2013-04-02 07:24:00,
2013-04-02 02:40:00,65.8,58.7,29.80,NE,45,7.3,-999.0,78,-99.99,,,0.00,Acu-Link.com,2013-04-02 07:40:00,
2013-04-02 02:55:00,66.0,58.9,29.79,ENE,67,5.8,-999.0,78,-99.99,,,0.00,Acu-Link.com,2013-04-02 07:55:00,
2013-04-02 03:10:00,65.7,58.6,29.80,ENE,67,6.3,-999.0,78,-99.99,,,0.00,Acu-Link.com,2013-04-02 08:10:00,
2013-04-02 03:25:00,65.7,59.0,29.79,ESE,112,6.3,-999.0,79,-99.99,,,0.00,Acu-Link.com,2013-04-02 08:25:00,
2013-04-02 03:40:00,65.7,59.4,29.79,East,90,2.2,-999.0,80,-99.99,,,0.00,Acu-Link.com,2013-04-02 08:40:00,
2013-04-02 03:56:00,64.4,57.4,29.80,ENE,67,7.3,-999.0,78,-99.99,,,0.00,Acu-Link.com,2013-04-02 08:56:00,
2013-04-02 04:11:00,64.6,58.3,29.80,East,90,6.8,-999.0,80,-99.99,,,0.00,Acu-Link.com,2013-04-02 09:11:00,
2013-04-02 04:26:00,64.4,58.4,29.80,ESE,112,7.3,-999.0,81,-99.99,,,0.00,Acu-Link.com,2013-04-02 09:26:00,
2013-04-02 04:41:00,64.2,58.9,29.80,ENE,67,6.3,-999.0,83,-99.99,,,0.00,Acu-Link.com,2013-04-02 09:41:00,
2013-04-02 04:56:00,64.2,59.3,29.79,ESE,112,6.8,-999.0,84,-99.99,,,0.00,Acu-Link.com,2013-04-02 09:56:00,
2013-04-02 05:11:00,64.4,59.5,29.79,ESE,112,10.9,-999.0,84,-99.99,,,0.00,Acu-Link.com,2013-04-02 10:11:00,
2013-04-02 05:27:00,64.4,59.8,29.79,SE,135,6.8,-999.0,85,-99.99,,,0.00,Acu-Link.com,2013-04-02 10:27:00,
2013-04-02 05:42:00,64.4,60.1,29.79,SE,135,4.7,-999.0,86,-99.99,,,0.00,Acu-Link.com,2013-04-02 10:42:00,
2013-04-02 05:57:00,65.5,61.8,29.78,SSE,157,3.7,-999.0,88,-99.99,,,0.00,Acu-Link.com,2013-04-02 10:57:00,
2013-04-02 06:13:00,65.7,62.4,29.78,SE,135,6.8,-999.0,89,-99.99,,,0.00,Acu-Link.com,2013-04-02 11:13:00,
2013-04-02 06:28:00,65.3,62.0,29.79,SE,135,5.8,-999.0,89,-99.99,,,0.00,Acu-Link.com,2013-04-02 11:28:00,
2013-04-02 06:43:00,64.9,61.9,29.79,SSE,157,2.7,-999.0,90,-99.99,,,0.00,Acu-Link.com,2013-04-02 11:43:00,
2013-04-02 06:58:00,64.4,61.7,29.78,ESE,112,2.2,-999.0,91,-99.99,,,0.00,Acu-Link.com,2013-04-02 11:58:00,
2013-04-02 07:13:00,63.9,61.5,29.78,ESE,112,1.7,-999.0,92,-99.99,,,0.00,Acu-Link.com,2013-04-02 12:13:00,
2013-04-02 07:29:00,63.9,61.8,29.78,ESE,112,2.7,-999.0,93,-99.99,,,0.00,Acu-Link.com,2013-04-02 12:29:00,
2013-04-02 07:44:00,63.9,61.8,29.78,East,90,4.2,-999.0,93,-99.99,,,0.00,Acu-Link.com,2013-04-02 12:44:00,
2013-04-02 07:59:00,64.2,61.8,29.78,SE,135,4.7,-999.0,92,-99.99,,,0.00,Acu-Link.com,2013-04-02 12:59:00,
2013-04-02 08:14:00,64.4,62.0,29.79,ESE,112,4.7,-999.0,92,-99.99,,,0.00,Acu-Link.com,2013-04-02 13:14:00,
2013-04-02 08:29:00,64.4,61.7,29.80,East,90,3.7,-999.0,91,-99.99,,,0.00,Acu-Link.com,2013-04-02 13:29:00,
2013-04-02 08:45:00,64.6,61.9,29.81,ESE,112,5.3,-999.0,91,-99.99,,,0.00,Acu-Link.com,2013-04-02 13:45:00,
2013-04-02 09:00:00,64.8,61.8,29.82,SE,135,3.7,-999.0,90,-99.99,,,0.00,Acu-Link.com,2013-04-02 14:00:00,
2013-04-02 09:15:00,64.8,61.8,29.83,SSE,157,4.7,-999.0,90,-99.99,,,0.00,Acu-Link.com,2013-04-02 14:15:00,
2013-04-02 09:30:00,64.8,61.8,29.84,SE,135,2.7,-999.0,90,-99.99,,,0.00,Acu-Link.com,2013-04-02 14:30:00,
2013-04-02 10:01:00,65.1,62.1,29.83,SSE,157,0.0,-999.0,90,-99.99,,,0.00,Acu-Link.com,2013-04-02 15:01:00,
2013-04-02 10:16:00,64.9,62.5,29.83,East,90,2.2,-999.0,92,-99.99,,,0.01,Acu-Link.com,2013-04-02 15:16:00,
2013-04-02 10:32:00,64.6,62.8,29.83,SSE,157,4.7,-999.0,94,-99.99,,,0.01,Acu-Link.com,2013-04-02 15:32:00,
2013-04-02 11:17:00,64.2,63.3,29.83,East,90,5.8,-999.0,97,-99.99,,,0.07,Acu-Link.com,2013-04-02 16:17:00,
2013-04-02 11:48:00,64.6,63.4,29.84,East,90,6.3,-999.0,96,-99.99,,,0.07,Acu-Link.com,2013-04-02 16:48:00,
2013-04-02 12:03:00,64.2,63.0,29.83,East,90,6.3,-999.0,96,-99.99,,,0.07,Acu-Link.com,2013-04-02 17:03:00,
2013-04-02 12:18:00,65.5,64.0,29.82,ESE,112,5.3,-999.0,95,-99.99,,,0.07,Acu-Link.com,2013-04-02 17:18:00,
2013-04-02 12:33:00,65.8,63.7,29.82,SSE,157,7.8,-999.0,93,-99.99,,,0.08,Acu-Link.com,2013-04-02 17:33:00,
2013-04-02 12:48:00,65.1,63.3,29.82,East,90,6.3,-999.0,94,-99.99,,,0.08,Acu-Link.com,2013-04-02 17:48:00,
2013-04-02 13:03:00,64.9,63.4,29.82,East,90,6.8,-999.0,95,-99.99,,,0.08,Acu-Link.com,2013-04-02 18:03:00,
2013-04-02 13:19:00,65.1,63.3,29.81,ESE,112,6.3,-999.0,94,-99.99,,,0.08,Acu-Link.com,2013-04-02 18:19:00,
2013-04-02 13:34:00,66.7,63.7,29.81,East,90,8.3,-999.0,90,-99.99,,,0.08,Acu-Link.com,2013-04-02 18:34:00,
2013-04-02 13:49:00,68.0,64.3,29.81,ESE,112,7.8,-999.0,88,-99.99,,,0.08,Acu-Link.com,2013-04-02 18:49:00,
2013-04-02 14:04:00,67.1,63.4,29.81,East,90,6.3,-999.0,88,-99.99,,,0.08,Acu-Link.com,2013-04-02 19:04:00,
2013-04-02 14:20:00,59.2,55.0,29.80,WNW,292,7.8,-999.0,86,-99.99,,,0.08,Acu-Link.com,2013-04-02 19:20:00,
2013-04-02 14:35:00,57.4,54.5,29.79,WNW,292,6.3,-999.0,90,-99.99,,,0.08,Acu-Link.com,2013-04-02 19:35:00,
2013-04-02 14:50:00,56.7,53.8,29.79,NW,315,8.9,-999.0,90,-99.99,,,0.08,Acu-Link.com,2013-04-02 19:50:00,
2013-04-02 15:05:00,55.8,52.9,29.80,NNW,337,8.3,-999.0,90,-99.99,,,0.08,Acu-Link.com,2013-04-02 20:05:00,
2013-04-02 15:20:00,55.6,53.0,29.79,NNW,337,6.3,-999.0,91,-99.99,,,0.08,Acu-Link.com,2013-04-02 20:20:00,
2013-04-02 15:35:00,55.8,52.9,29.79,NNW,337,11.4,-999.0,90,-99.99,,,0.08,Acu-Link.com,2013-04-02 20:35:00,
2013-04-02 16:06:00,54.7,52.1,29.78,NNW,337,6.8,-999.0,91,-99.99,,,0.08,Acu-Link.com,2013-04-02 21:06:00,
2013-04-02 16:21:00,55.8,53.2,29.75,North,0,6.8,-999.0,91,-99.99,,,0.08,Acu-Link.com,2013-04-02 21:21:00,
2013-04-02 16:36:00,55.9,53.0,29.77,NNW,337,5.3,-999.0,90,-99.99,,,0.08,Acu-Link.com,2013-04-02 21:36:00,
2013-04-02 17:07:00,55.2,52.0,29.76,NW,315,7.3,-999.0,89,-99.99,,,0.08,Acu-Link.com,2013-04-02 22:07:00,
2013-04-02 17:22:00,54.3,51.4,29.76,NW,315,7.8,-999.0,90,-99.99,,,0.08,Acu-Link.com,2013-04-02 22:22:00,
2013-04-02 17:53:00,52.7,50.1,29.76,NW,315,11.4,-999.0,91,-99.99,,,0.08,Acu-Link.com,2013-04-02 22:53:00,
2013-04-02 18:08:00,51.8,49.6,29.76,NNE,22,11.4,-999.0,92,-99.99,,,0.08,Acu-Link.com,2013-04-02 23:08:00,
2013-04-02 18:23:00,51.4,49.7,29.76,WNW,292,10.4,-999.0,94,-99.99,,,0.08,Acu-Link.com,2013-04-02 23:23:00,
2013-04-02 18:38:00,50.5,48.8,29.76,North,0,8.3,-999.0,94,-99.99,,,0.08,Acu-Link.com,2013-04-02 23:38:00,
2013-04-02 18:53:00,49.8,48.7,29.77,NE,45,9.9,-999.0,96,-99.99,,,0.08,Acu-Link.com,2013-04-02 23:53:00,
2013-04-02 19:08:00,49.1,48.0,29.77,NE,45,11.4,-999.0,96,-99.99,,,0.08,Acu-Link.com,2013-04-03 00:08:00,
2013-04-02 19:24:00,48.6,47.8,29.80,NNW,337,6.3,-999.0,97,-99.99,,,0.08,Acu-Link.com,2013-04-03 00:24:00,
2013-04-02 19:54:00,48.2,47.4,29.81,NNE,22,10.4,-999.0,97,-99.99,,,0.08,Acu-Link.com,2013-04-03 00:54:00,
2013-04-02 20:09:00,47.7,46.9,29.80,NNE,22,11.4,-999.0,97,-99.99,,,0.08,Acu-Link.com,2013-04-03 01:09:00,
2013-04-02 20:24:00,47.5,46.7,29.79,NW,315,9.9,-999.0,97,-99.99,,,0.08,Acu-Link.com,2013-04-03 01:24:00,
2013-04-02 20:40:00,47.5,47.0,29.79,NNW,337,9.4,-999.0,98,-99.99,,,0.08,Acu-Link.com,2013-04-03 01:40:00,
2013-04-02 20:55:00,47.8,47.0,29.78,North,0,7.3,-999.0,97,-99.99,,,0.08,Acu-Link.com,2013-04-03 01:55:00,
2013-04-02 21:10:00,48.0,47.2,29.79,North,0,5.3,-999.0,97,-99.99,,,0.08,Acu-Link.com,2013-04-03 02:10:00,
2013-04-02 21:25:00,47.7,46.9,29.80,NE,45,9.9,-999.0,97,-99.99,,,0.08,Acu-Link.com,2013-04-03 02:25:00,
2013-04-02 21:40:00,47.5,46.7,29.86,South,180,10.4,-999.0,97,-99.99,,,0.08,Acu-Link.com,2013-04-03 02:40:00,
2013-04-02 21:56:00,46.8,46.0,29.87,WNW,292,12.5,-999.0,97,-99.99,,,0.08,Acu-Link.com,2013-04-03 02:56:00,
2013-04-02 22:26:00,45.0,44.7,29.85,NW,315,8.9,-999.0,99,-99.99,,,0.13,Acu-Link.com,2013-04-03 03:26:00,
2013-04-02 23:12:00,45.1,44.8,29.87,ENE,67,3.2,-999.0,99,-99.99,,,1.03,Acu-Link.com,2013-04-03 04:12:00,
2013-04-02 23:27:00,45.1,44.8,29.86,NE,45,3.7,-999.0,99,-99.99,,,1.19,Acu-Link.com,2013-04-03 04:27:00,
2013-04-02 23:43:00,45.7,45.4,29.85,East,90,3.2,-999.0,99,-99.99,,,1.23,Acu-Link.com,2013-04-03 04:43:00,
2013-04-02 23:58:00,46.0,45.7,29.84,East,90,4.7,-999.0,99,-99.99,,,1.33,Acu-Link.com,2013-04-03 04:58:00,